Grotto, Washington
Current Conditions -  °F | °C
As of 12:53 PM on Thursday 23 Oct 2014 (Local Time) from KRNT Reporting Station
Clear Clear  
Wind Chill: 58°   Ceiling: Unl
Heat Index: 58°   Visibility: 10mi
Dew Point: 50°   Wind: 14mph
Humidity: 75%   Direction: 150°SSE
Pressure: 29.81"   Gusts: 23mph
Location:  47.6494°N, 121.356°W
Report Text: KRNT 231953Z 15012G20KT 10SM CLR 14/10 A2981 RMK AO2 SLP100 T01440100
Loading
Personal Weather Stations






























Interactive Weather Map
Tropical Storm Tracking
New forecast layout! Learn more

10-Day Weather Forecast

Advertisements
Track Severe Weather on mobile